createdAt,value
2022-12-09T00:01:29.692Z,4.00
2022-12-09T00:06:27.081Z,2.70
2022-12-09T00:08:55.012Z,4.00
2022-12-09T00:13:50.940Z,4.10
2022-12-09T00:16:18.553Z,4.20
2022-12-09T00:26:08.429Z,5.20
2022-12-09T00:31:03.717Z,4.20
2022-12-09T00:33:31.480Z,4.10
2022-12-09T00:36:20.086Z,4.10
2022-12-09T00:41:16.221Z,4.00
2022-12-09T00:46:12.172Z,4.10
2022-12-09T00:51:07.816Z,4.10
2022-12-09T00:58:29.652Z,5.00
2022-12-09T01:00:57.307Z,4.20
2022-12-09T01:13:15.426Z,4.20
2022-12-09T01:15:43.328Z,4.80
2022-12-09T01:18:11.590Z,4.30
2022-12-09T01:28:01.106Z,5.30
2022-12-09T01:40:19.635Z,4.10
2022-12-09T01:45:20.642Z,4.00
2022-12-09T01:47:54.495Z,3.80
2022-12-09T01:52:49.848Z,3.50
2022-12-09T01:57:46.121Z,3.50
2022-12-09T02:02:47.215Z,3.30
2022-12-09T02:05:18.904Z,3.20
2022-12-09T02:10:19.295Z,3.10
2022-12-09T02:15:36.033Z,3.10
2022-12-09T02:18:15.731Z,1.80
2022-12-09T02:21:07.452Z,2.90
2022-12-09T02:23:43.139Z,2.60
2022-12-09T02:26:34.679Z,2.80
2022-12-09T02:29:42.320Z,1.50
2022-12-09T02:32:29.584Z,2.90
2022-12-09T02:35:03.222Z,2.90
2022-12-09T02:37:40.552Z,2.90
2022-12-09T02:40:27.532Z,3.70
2022-12-09T02:42:56.461Z,2.80
2022-12-09T02:45:26.391Z,2.70
2022-12-09T02:47:56.064Z,2.70
2022-12-09T02:50:27.359Z,2.80
2022-12-09T02:52:56.398Z,3.00
2022-12-09T02:57:58.298Z,2.90
2022-12-09T03:02:56.247Z,2.90
2022-12-09T03:05:29.227Z,2.70
2022-12-09T03:08:22.437Z,2.70
2022-12-09T03:11:00.608Z,3.40
2022-12-09T03:13:41.150Z,2.50
2022-12-09T03:16:15.526Z,2.60
2022-12-09T03:18:47.809Z,3.60
2022-12-09T03:21:18.326Z,2.40
2022-12-09T03:26:15.616Z,2.40
2022-12-09T03:28:49.243Z,2.20
2022-12-09T03:31:20.763Z,2.20
2022-12-09T03:33:52.146Z,2.10
2022-12-09T03:36:23.091Z,2.10
2022-12-09T03:38:53.562Z,2.00
2022-12-09T03:41:32.013Z,2.20
2022-12-09T03:44:09.306Z,2.00
2022-12-09T03:51:54.382Z,2.00
2022-12-09T03:54:29.779Z,1.80
2022-12-09T03:56:58.427Z,1.80
2022-12-09T03:59:30.595Z,1.80
2022-12-09T04:06:54.512Z,0.60
2022-12-09T04:16:44.732Z,1.80
2022-12-09T04:46:16.154Z,1.70
2022-12-09T04:51:13.057Z,1.60
2022-12-09T04:56:19.143Z,1.60
2022-12-09T05:01:18.193Z,1.70
2022-12-09T05:03:50.204Z,0.50
2022-12-09T05:11:18.022Z,1.90
2022-12-09T05:13:45.387Z,2.30
2022-12-09T05:16:16.911Z,1.90
2022-12-09T05:18:45.117Z,2.60
2022-12-09T05:21:18.673Z,2.10
2022-12-09T05:26:16.126Z,1.10
2022-12-09T05:31:15.524Z,2.20
2022-12-09T05:33:44.120Z,2.20
2022-12-09T05:38:39.856Z,2.30
2022-12-09T05:43:35.147Z,2.30
2022-12-09T05:51:04.241Z,2.30
2022-12-09T06:03:25.575Z,2.20
2022-12-09T06:20:41.841Z,2.00
2022-12-09T06:28:04.879Z,1.80
2022-12-09T06:30:33.102Z,1.10
2022-12-09T06:33:00.708Z,2.00
2022-12-09T06:42:51.371Z,2.00
2022-12-09T06:45:19.950Z,1.90
2022-12-09T06:50:16.082Z,2.10
2022-12-09T07:05:04.687Z,2.00
2022-12-09T07:10:06.636Z,1.80
2022-12-09T07:22:33.711Z,1.90
2022-12-09T08:04:36.442Z,2.50
2022-12-09T08:26:51.323Z,2.60
2022-12-09T08:39:12.324Z,2.90
2022-12-09T08:41:40.400Z,2.80
2022-12-09T08:44:13.814Z,2.90
2022-12-09T08:46:43.594Z,3.20
2022-12-09T08:49:11.178Z,3.60
2022-12-09T08:59:02.114Z,2.50
2022-12-09T09:01:33.780Z,0.40
2022-12-09T09:04:05.155Z,3.70
2022-12-09T09:09:00.210Z,5.30
2022-12-09T09:16:24.769Z,4.50
2022-12-09T09:18:52.705Z,4.60
2022-12-09T09:21:22.683Z,4.70
2022-12-09T09:26:21.408Z,4.80
2022-12-09T09:28:49.601Z,4.50
2022-12-09T09:31:19.421Z,4.00
2022-12-09T09:33:47.098Z,4.00
2022-12-09T09:36:20.241Z,3.70
2022-12-09T09:41:44.532Z,3.60
2022-12-09T09:44:28.122Z,3.50
2022-12-09T09:46:56.793Z,3.40
2022-12-09T09:49:49.520Z,3.70
2022-12-09T09:52:26.819Z,3.50
2022-12-09T09:57:33.361Z,3.70
2022-12-09T10:02:57.268Z,3.80
2022-12-09T10:05:34.440Z,4.20
2022-12-09T10:08:27.042Z,3.90
2022-12-09T10:13:48.404Z,4.00
2022-12-09T10:16:40.621Z,3.80
2022-12-09T10:19:36.962Z,4.10
2022-12-09T10:22:14.950Z,5.10
2022-12-09T10:24:52.464Z,4.70
2022-12-09T10:27:22.476Z,5.20
2022-12-09T10:32:20.660Z,5.80
2022-12-09T10:34:48.766Z,6.30
2022-12-09T10:37:33.919Z,6.50
2022-12-09T10:40:26.369Z,7.50
2022-12-09T10:43:14.522Z,7.30
2022-12-09T10:48:48.535Z,6.10
2022-12-09T10:51:24.008Z,6.20
2022-12-09T10:54:05.683Z,4.90
2022-12-09T10:56:38.694Z,9.00
2022-12-09T10:59:22.458Z,6.20
2022-12-09T11:01:55.702Z,6.40
2022-12-09T11:04:33.902Z,6.70
2022-12-09T11:07:05.192Z,7.10
2022-12-09T11:09:35.079Z,7.00
2022-12-09T11:12:06.136Z,7.20
2022-12-09T11:14:59.972Z,7.10
2022-12-09T11:17:35.978Z,7.50
2022-12-09T11:20:07.161Z,7.90
2022-12-09T11:22:43.238Z,8.70
2022-12-09T11:25:15.931Z,8.90
2022-12-09T11:27:50.793Z,8.80
2022-12-09T11:33:07.861Z,8.30
2022-12-09T11:35:52.896Z,8.40
2022-12-09T11:38:40.757Z,8.70
2022-12-09T11:43:52.482Z,8.00
2022-12-09T11:46:29.714Z,9.70
2022-12-09T11:49:05.584Z,7.00
2022-12-09T11:51:40.019Z,7.70
2022-12-09T11:54:35.500Z,7.50
2022-12-09T11:57:05.347Z,7.70
2022-12-09T11:59:41.955Z,8.00
2022-12-09T12:02:22.005Z,9.00
2022-12-09T12:04:58.807Z,11.50
2022-12-09T12:07:39.673Z,11.00
2022-12-09T12:10:17.750Z,10.80
2022-12-09T12:13:20.625Z,10.10
2022-12-09T12:16:12.653Z,11.90
2022-12-09T12:19:18.310Z,8.30
2022-12-09T12:21:56.968Z,7.80
2022-12-09T12:24:55.712Z,7.40
2022-12-09T12:27:48.665Z,7.30
2022-12-09T12:30:35.063Z,7.40
2022-12-09T12:36:39.944Z,7.50
2022-12-09T12:39:25.212Z,8.00
2022-12-09T12:42:12.173Z,8.50
2022-12-09T12:45:08.831Z,8.90
2022-12-09T12:47:54.287Z,12.10
2022-12-09T12:53:03.346Z,11.30
2022-12-09T12:55:44.901Z,14.50
2022-12-09T12:58:20.413Z,11.90
2022-12-09T13:01:30.658Z,11.30
2022-12-09T13:04:21.530Z,11.90
2022-12-09T13:07:01.721Z,11.40
2022-12-09T13:09:43.881Z,10.70
2022-12-09T13:12:42.811Z,9.10
2022-12-09T13:15:14.766Z,9.30
2022-12-09T13:17:42.404Z,7.80
2022-12-09T13:20:16.472Z,7.80
2022-12-09T13:23:02.076Z,7.30
2022-12-09T13:25:48.405Z,6.70
2022-12-09T13:28:48.108Z,5.10
2022-12-09T13:31:20.535Z,6.10
2022-12-09T13:34:22.843Z,4.60
2022-12-09T13:39:42.126Z,5.60
2022-12-09T13:42:46.532Z,6.90
2022-12-09T13:50:27.544Z,5.50
2022-12-09T13:53:02.233Z,5.40
2022-12-09T13:55:35.213Z,5.40
2022-12-09T13:58:13.964Z,5.60
2022-12-09T14:00:43.924Z,6.10
2022-12-09T14:03:34.885Z,5.80
2022-12-09T14:06:06.474Z,6.50
2022-12-09T14:08:39.631Z,7.30
2022-12-09T14:11:37.550Z,7.40
2022-12-09T14:14:23.188Z,6.90
2022-12-09T14:16:50.853Z,7.00
2022-12-09T14:19:23.813Z,6.90
2022-12-09T14:22:19.548Z,6.50
2022-12-09T14:24:53.951Z,6.10
2022-12-09T14:27:28.878Z,5.70
2022-12-09T14:32:56.066Z,4.10
2022-12-09T14:35:46.293Z,5.30
2022-12-09T14:38:21.825Z,5.20
2022-12-09T14:41:11.978Z,5.00
2022-12-09T14:44:06.302Z,5.00
2022-12-09T14:46:34.819Z,4.90
2022-12-09T14:49:23.332Z,4.80
2022-12-09T14:51:55.483Z,4.50
2022-12-09T14:54:26.925Z,4.50
2022-12-09T14:56:57.947Z,4.40
2022-12-09T14:59:26.824Z,4.40
2022-12-09T15:02:07.599Z,4.30
2022-12-09T15:04:40.030Z,4.20
2022-12-09T15:07:16.199Z,4.00
2022-12-09T15:10:04.698Z,4.20
2022-12-09T15:12:37.641Z,4.20
2022-12-09T15:15:07.638Z,3.80
2022-12-09T15:17:45.175Z,3.90
2022-12-09T15:20:34.983Z,4.00
2022-12-09T15:23:06.533Z,2.70
2022-12-09T15:25:44.287Z,3.50
2022-12-09T15:28:26.290Z,4.60
2022-12-09T15:31:05.508Z,3.40
2022-12-09T15:33:40.307Z,3.30
2022-12-09T15:36:14.498Z,3.30
2022-12-09T15:38:56.964Z,3.30
2022-12-09T15:41:47.641Z,3.10
2022-12-09T15:44:18.390Z,3.20
2022-12-09T15:46:48.467Z,3.00
2022-12-09T15:49:20.488Z,3.10
2022-12-09T15:51:49.540Z,2.80
2022-12-09T15:54:22.187Z,3.00
2022-12-09T15:56:56.875Z,2.90
2022-12-09T16:01:54.929Z,2.80
2022-12-09T16:04:25.248Z,2.60
2022-12-09T16:09:20.749Z,2.70
2022-12-09T16:11:53.396Z,2.70
2022-12-09T16:14:23.564Z,3.30
2022-12-09T16:19:40.581Z,2.40
2022-12-09T16:25:13.209Z,0.60
2022-12-09T16:27:33.534Z,2.40
2022-12-09T16:30:21.062Z,2.20
2022-12-09T16:32:51.817Z,2.30
2022-12-09T16:35:26.303Z,2.30
2022-12-09T16:37:56.528Z,2.10
2022-12-09T16:40:26.472Z,2.10
2022-12-09T16:43:14.063Z,1.90
2022-12-09T16:48:10.062Z,1.80
2022-12-09T16:50:41.657Z,2.10
2022-12-09T16:53:15.403Z,1.80
2022-12-09T16:55:50.957Z,1.60
2022-12-09T17:03:42.494Z,1.50
2022-12-09T17:06:20.493Z,1.40
2022-12-09T17:18:39.719Z,1.30
2022-12-09T17:21:09.995Z,1.20
2022-12-09T17:26:11.680Z,1.30
2022-12-09T17:28:39.577Z,1.10
2022-12-09T17:31:12.069Z,1.20
2022-12-09T17:36:07.493Z,2.10
2022-12-09T17:41:07.167Z,1.10
2022-12-09T17:46:03.262Z,2.70
2022-12-09T18:08:29.648Z,0.80
2022-12-09T18:41:01.355Z,0.70
2022-12-09T18:43:33.450Z,0.60
2022-12-09T18:46:06.712Z,0.60
2022-12-09T19:01:21.761Z,0.60
2022-12-09T19:06:36.744Z,0.40
2022-12-09T19:09:10.286Z,0.40
2022-12-09T19:11:39.005Z,0.50
2022-12-09T19:14:07.644Z,0.40
2022-12-09T19:26:33.013Z,0.50
2022-12-09T19:29:02.623Z,0.50
2022-12-09T19:31:38.408Z,0.50
2022-12-09T19:34:14.169Z,0.50
2022-12-09T19:39:09.610Z,0.60
2022-12-09T19:41:38.010Z,0.60
2022-12-09T19:46:33.632Z,0.70
2022-12-09T19:53:57.125Z,0.70
2022-12-09T20:01:37.067Z,1.50
2022-12-09T20:16:47.133Z,1.10
2022-12-09T20:19:14.054Z,-0.50
2022-12-09T20:21:40.996Z,0.00
2022-12-09T20:24:09.420Z,-0.70
2022-12-09T20:26:38.051Z,0.50
2022-12-09T20:29:10.691Z,0.40
2022-12-09T20:31:38.781Z,0.50
2022-12-09T20:34:08.960Z,1.60
2022-12-09T20:36:37.688Z,1.60
2022-12-09T20:39:11.229Z,0.40
2022-12-09T20:41:39.058Z,0.90
2022-12-09T20:49:01.827Z,0.20
2022-12-09T20:51:37.896Z,0.30
2022-12-09T21:01:30.820Z,0.20
2022-12-09T21:03:59.687Z,0.30
2022-12-09T21:06:30.186Z,0.30
2022-12-09T21:09:00.175Z,0.20
2022-12-09T21:13:58.255Z,0.30
2022-12-09T21:16:27.665Z,0.20
2022-12-09T21:18:57.175Z,0.30
2022-12-09T21:21:25.422Z,0.20
2022-12-09T21:26:23.119Z,0.30
2022-12-09T21:31:29.677Z,0.30
2022-12-09T21:33:58.090Z,0.30
2022-12-09T21:36:27.694Z,0.40
2022-12-09T21:41:24.717Z,0.30
2022-12-09T21:43:54.921Z,0.50
2022-12-09T21:46:30.373Z,0.50
2022-12-09T21:49:03.320Z,0.60
2022-12-09T21:56:27.738Z,-0.60
2022-12-09T21:58:56.896Z,0.50
2022-12-09T22:01:28.018Z,0.50
2022-12-09T22:03:56.442Z,0.60
2022-12-09T22:06:23.923Z,0.60
2022-12-09T22:11:24.451Z,0.50
2022-12-09T22:16:24.368Z,0.50
2022-12-09T22:18:53.965Z,0.50
2022-12-09T22:21:25.182Z,0.40
2022-12-09T22:23:54.663Z,0.40
2022-12-09T22:26:22.730Z,1.40
2022-12-09T22:31:22.629Z,1.40
2022-12-09T22:33:51.224Z,0.40
2022-12-09T22:36:19.102Z,1.30
2022-12-09T22:41:21.583Z,0.40
2022-12-09T22:46:23.576Z,0.40
2022-12-09T22:48:50.691Z,3.20
2022-12-09T22:51:26.764Z,0.40
2022-12-09T22:53:55.663Z,0.40
2022-12-09T22:56:24.147Z,0.50
2022-12-09T23:01:21.663Z,0.60
2022-12-09T23:08:44.420Z,0.80
2022-12-09T23:11:17.524Z,0.60
2022-12-09T23:16:15.359Z,0.70
2022-12-09T23:21:13.110Z,0.70
2022-12-09T23:26:10.185Z,0.70
2022-12-09T23:28:38.839Z,0.70
2022-12-09T23:31:08.803Z,0.70
2022-12-09T23:33:36.804Z,0.10
2022-12-09T23:36:13.242Z,0.70
2022-12-09T23:38:40.663Z,0.70
2022-12-09T23:43:37.064Z,0.70
2022-12-09T23:46:11.364Z,0.80
2022-12-09T23:51:17.679Z,0.80
2022-12-09T23:53:46.595Z,0.80
2022-12-09T23:56:15.378Z,0.90
2022-12-09T23:58:43.056Z,0.90
